Date,TemperatureHighF,TemperatureAvgF,TemperatureLowF,DewpointHighF,DewpointAvgF,DewpointLowF,HumidityHigh,HumidityAvg,HumidityLow,PressureMaxIn,PressureMinIn,WindSpeedMaxMPH,WindSpeedAvgMPH,GustSpeedMaxMPH,PrecipitationSumIn
2013-11-1,48,45,41,42,40,38,89,83,76,29.78,29.48,14,2,14,0.01
2013-11-2,50,40,30,38,33,26,90,77,53,30.16,29.77,13,2,14,0.00
2013-11-3,54,39,25,38,31,22,91,74,45,30.29,30.15,20,2,20,0.00
2013-11-4,58,50,41,43,39,34,77,67,51,30.18,30.04,18,4,34,0.00
2013-11-5,55,52,48,51,47,43,89,84,73,30.22,29.88,34,3,34,0.19
2013-11-6,56,45,32,53,39,26,89,80,63,30.24,29.75,22,4,22,0.26
2013-11-7,42,34,26,33,28,22,86,79,67,30.28,30.23,16,2,16,0.00
2013-11-8,50,40,26,35,29,22,87,67,46,30.32,29.85,32,4,32,0.00
2013-11-9,58,49,40,40,37,30,73,62,49,30.20,29.84,38,6,38,0.00
2013-11-10,49,40,29,32,29,24,83,65,49,30.40,30.20,14,3,14,0.00
2013-11-11,47,37,21,35,28,15,87,70,59,30.60,30.09,20,2,20,0.04
2013-11-12,32,22,15,20,14,10,81,73,54,30.76,30.59,13,2,13,0.00
2013-11-13,44,30,17,19,16,12,81,57,32,30.62,30.14,18,4,23,0.01
2013-11-14,52,42,32,28,24,17,65,49,38,30.14,29.91,25,4,25,0.00
2013-11-15,56,44,35,34,29,23,80,58,40,29.97,29.87,23,3,23,0.00
2013-11-16,60,52,40,54,47,33,86,83,75,29.87,29.50,32,8,32,0.03
2013-11-17,69,54,41,61,48,35,89,81,71,29.84,29.16,36,7,36,0.25
2013-11-18,43,38,27,36,28,22,84,70,52,30.28,29.84,29,6,29,0.00
2013-11-19,43,32,21,29,25,18,89,76,55,30.36,30.21,14,2,14,0.00
2013-11-20,40,36,29,35,30,25,88,81,66,30.23,30.03,20,3,20,0.40
2013-11-21,45,41,37,40,37,34,90,86,82,30.27,30.07,9,0,9,0.00
2013-11-22,40,33,22,36,27,17,87,80,68,30.52,30.26,16,3,16,0.04
2013-11-23,24,19,9,17,10,3,83,68,46,30.76,30.50,20,4,20,0.00
2013-11-24,29,18,8,10,6,3,82,62,33,30.75,30.36,22,3,22,0.00
2013-11-25,34,29,19,26,20,10,81,69,55,30.36,30.08,23,3,23,0.00
2013-11-26,32,28,16,25,19,5,85,71,51,30.26,30.06,22,4,22,0.00
2013-11-27,28,19,10,12,8,3,75,63,47,30.32,30.21,11,3,11,0.00
2013-11-28,34,24,15,18,14,9,84,65,49,30.51,30.13,18,2,18,0.00
2013-11-29,37,24,10,20,15,6,87,72,46,30.61,30.34,18,1,18,0.00
2013-11-30,52,35,24,33,26,19,87,71,47,30.34,30.03,11,1,14,0.00